TAPA METAR and TAF | Updated Today

TAPA METAR

V.C. Bird International Airport

Observation time: 1:36 hr. ago

TAPA 060700Z 09011KT 050V130 9999 SCT018 27/21 Q1016 NOSIG

Need help? Read our tutorial on how to read METARs or read the parsed version below.

V.C. Bird International Airport (TAPA) METAR

  • Weather conditions on Mon, 06 Dec 2021 07:00:00 +0000 (1:36 hr. ago):
  • Present conditions: Dry
  • Clouds: Scattered at 549 meters
  • Visibility: Greater than 10 km
  • Wind: 90 degrees at 11 knots
  • Temperature: 27 celsius
  • Dew point: 21 celsius
  • Pressure: 1016 millibars
  • Remarks: None


Useful to know...

TAPA TAF

V.C. Bird International Airport

TAF TAPA 060521Z 0606/0706 07013KT 9999 SCT019 PROB40 TEMPO 0606/0614 SHRA BKN014
Observation time: 3:15 hr. ago
Need help? Read our tutorial on how to read TAFs or read the parsed version below.

Parsed version of TAF for V.C. Bird International Airport (TAPA)

  • From 06 December at 06:00 UTC, to day 07 of the month at 06:00 UTC
  • Clouds: Scattered at 579 meters
  • Visibility: Greater than 10 km
  • Wind: 70 degrees at 13
  • Expected to arise temporarily, from 06 December at 06:00 UTC, to day 06 of the month at 14:00 UTC
    Probability of 40%
  • Clouds: Broken sky at 427 meters